Middleburg, VA

2:20 PM EST on January 24, 2017 (GMT -0500)
Mayfield | | Change Station
Active Advisory: Small Craft Advisory

Elev 548 ft 38.93 °N, 77.77 °W | Updated 5 minutes ago

Overcast
Overcast
46.2 °F
Feels Like 43 °F
N
6.0
Wind Variable Wind from NW
Gusts 17.0 mph

Today
High -- | Low -- °F
--% Chance of Precip.
Yesterday
High -- | Low -- °F
Precip. -- in
Pressure 29.55 in
Visibility 10.0 miles
Clouds Overcast 2700 ft
Windchill 43 °F
Dew Point 39 °F
Humidity 77%
Rainfall 0.05 in
Snow Depth Not available.
7:23 AM 5:23 PM
Waning Crescent, 10% visible
METAR KJYO 241915Z AUTO 32014G20KT 10SM OVC027 08/04 A2955 RMK AO2
Pressure 29.55 in
Visibility 10.0 miles
Clouds Overcast 2700 ft
Windchill 43 °F
Dew Point 39 °F
Humidity 77%
Rainfall 0.05 in
Snow Depth Not available.
7:23 AM 5:23 PM
Waning Crescent, 10% visible
METAR KJYO 241915Z AUTO 32014G20KT 10SM OVC027 08/04 A2955 RMK AO2

Get Your Daily Forecast Email!

Thanks for signing up!

Be on the lookout for a verification email in your inbox.

You'll start receiving the daily forecast at 8 AM.

×

10-Day Weather Forecast

Almanac

Astronomy

Jan. 24, 2017 Rise Set
Actual Time
Civil Twilight
Nautical Twilight
Astronomical Twilight
Moon
Length of Visible Light
Length of Day
Tomorrow will be .
, % of the Moon is Illuminated

Today's Extremes

State Highs State Lows

Community

WunderPhotos

Upload Photos

1,962,540 photos uploaded!

WunderBlog® & News

Nearby

Air Quality

  Air Quality AQ Index Pollutant
Not available.

Snow Depth

Station Depth Elevation

Earthquake Activity

City Distance Mag. Time & Date
Minimum magnitude displayed is 2.5.

Coastal Water Temperatures

Place Temperature

Stations

Nearby Weather Stations

Station Location Temp. Windchill Dew Point Humidity Wind Precip. Elev Updated Type
                   

Watches & Warnings

Small Craft Advisory
Issued: 12:27 PM EST Jan. 24, 2017 – National Weather Service

... Small Craft Advisory remains in effect until 10 PM EST this
evening...

* winds... 18 to 33 knots within the Small Craft Advisory.

Precautionary/preparedness actions...

A Small Craft Advisory means winds of 18 to 33 knots are imminent
or occurring. Boaters operating smaller vessels should avoid
navigating in these conditions.